RJFO(METAR)
05/24 14:00
METAR RJFO 240500Z 05005KT CAVOK 23/15 Q1013 RMK A2992=
戻る
トップページへ戻る
IMOC Co,.Ltd.